sensor_id;sensor_type;location;lat;lon;timestamp;P1;durP1;ratioP1;P2;durP2;ratioP2
18887;SDS011;9576;47.792;9.628;2023-05-14T00:02:01;19.25;;;11.77;;
18887;SDS011;9576;47.792;9.628;2023-05-14T00:05:03;15.80;;;10.77;;
18887;SDS011;9576;47.792;9.628;2023-05-14T00:08:06;15.02;;;10.27;;
18887;SDS011;9576;47.792;9.628;2023-05-14T00:11:07;17.52;;;10.15;;
18887;SDS011;9576;47.792;9.628;2023-05-14T00:14:11;18.13;;;10.70;;
18887;SDS011;9576;47.792;9.628;2023-05-14T00:17:13;17.00;;;10.23;;
18887;SDS011;9576;47.792;9.628;2023-05-14T00:20:15;22.42;;;11.20;;
18887;SDS011;9576;47.792;9.628;2023-05-14T00:23:17;24.50;;;10.93;;
18887;SDS011;9576;47.792;9.628;2023-05-14T00:26:18;25.00;;;10.40;;
18887;SDS011;9576;47.792;9.628;2023-05-14T00:29:22;19.20;;;11.57;;
18887;SDS011;9576;47.792;9.628;2023-05-14T00:32:24;17.80;;;11.18;;
18887;SDS011;9576;47.792;9.628;2023-05-14T00:35:26;17.73;;;11.45;;
18887;SDS011;9576;47.792;9.628;2023-05-14T00:38:27;19.35;;;10.93;;
18887;SDS011;9576;47.792;9.628;2023-05-14T00:41:29;17.02;;;11.90;;
18887;SDS011;9576;47.792;9.628;2023-05-14T00:44:33;20.95;;;10.80;;
18887;SDS011;9576;47.792;9.628;2023-05-14T00:47:35;18.90;;;13.30;;
18887;SDS011;9576;47.792;9.628;2023-05-14T00:50:39;20.23;;;11.90;;
18887;SDS011;9576;47.792;9.628;2023-05-14T00:53:41;21.35;;;12.38;;
18887;SDS011;9576;47.792;9.628;2023-05-14T00:56:43;18.80;;;11.60;;
18887;SDS011;9576;47.792;9.628;2023-05-14T00:59:48;19.80;;;11.55;;
18887;SDS011;9576;47.792;9.628;2023-05-14T01:02:50;19.75;;;11.68;;
18887;SDS011;9576;47.792;9.628;2023-05-14T01:05:52;18.63;;;12.00;;
18887;SDS011;9576;47.792;9.628;2023-05-14T01:09:10;17.27;;;10.85;;
18887;SDS011;9576;47.792;9.628;2023-05-14T01:12:18;20.98;;;12.07;;
18887;SDS011;9576;47.792;9.628;2023-05-14T01:15:27;19.33;;;12.30;;
18887;SDS011;9576;47.792;9.628;2023-05-14T01:18:30;15.30;;;10.98;;
18887;SDS011;9576;47.792;9.628;2023-05-14T01:21:36;22.88;;;11.48;;
18887;SDS011;9576;47.792;9.628;2023-05-14T01:24:39;19.38;;;11.48;;
18887;SDS011;9576;47.792;9.628;2023-05-14T01:27:42;31.40;;;11.43;;
18887;SDS011;9576;47.792;9.628;2023-05-14T01:30:51;21.45;;;11.65;;
18887;SDS011;9576;47.792;9.628;2023-05-14T01:33:57;17.05;;;11.07;;
18887;SDS011;9576;47.792;9.628;2023-05-14T01:37:02;19.10;;;11.52;;
18887;SDS011;9576;47.792;9.628;2023-05-14T01:43:08;19.05;;;11.63;;
18887;SDS011;9576;47.792;9.628;2023-05-14T01:46:10;20.08;;;10.88;;
18887;SDS011;9576;47.792;9.628;2023-05-14T01:49:12;18.85;;;11.32;;
18887;SDS011;9576;47.792;9.628;2023-05-14T01:52:16;19.60;;;11.82;;
18887;SDS011;9576;47.792;9.628;2023-05-14T01:55:20;18.77;;;11.68;;
18887;SDS011;9576;47.792;9.628;2023-05-14T01:58:22;18.38;;;11.88;;
18887;SDS011;9576;47.792;9.628;2023-05-14T02:01:24;17.35;;;11.20;;
18887;SDS011;9576;47.792;9.628;2023-05-14T02:04:26;17.05;;;11.25;;
18887;SDS011;9576;47.792;9.628;2023-05-14T02:07:29;16.95;;;11.30;;
18887;SDS011;9576;47.792;9.628;2023-05-14T02:10:31;17.17;;;10.93;;
18887;SDS011;9576;47.792;9.628;2023-05-14T02:13:34;16.58;;;10.70;;
18887;SDS011;9576;47.792;9.628;2023-05-14T02:16:36;18.95;;;11.25;;
18887;SDS011;9576;47.792;9.628;2023-05-14T02:19:38;15.88;;;10.75;;
18887;SDS011;9576;47.792;9.628;2023-05-14T02:22:41;20.05;;;10.88;;
18887;SDS011;9576;47.792;9.628;2023-05-14T02:25:45;18.15;;;11.07;;
18887;SDS011;9576;47.792;9.628;2023-05-14T02:28:46;16.55;;;11.52;;
18887;SDS011;9576;47.792;9.628;2023-05-14T02:31:48;18.13;;;11.55;;
18887;SDS011;9576;47.792;9.628;2023-05-14T02:34:50;18.98;;;12.20;;
18887;SDS011;9576;47.792;9.628;2023-05-14T02:37:53;18.95;;;11.43;;
18887;SDS011;9576;47.792;9.628;2023-05-14T02:40:55;18.50;;;11.75;;
18887;SDS011;9576;47.792;9.628;2023-05-14T02:43:57;18.13;;;10.70;;
18887;SDS011;9576;47.792;9.628;2023-05-14T02:46:59;19.42;;;11.82;;
18887;SDS011;9576;47.792;9.628;2023-05-14T02:50:01;16.63;;;11.32;;
18887;SDS011;9576;47.792;9.628;2023-05-14T02:53:06;17.30;;;11.30;;
18887;SDS011;9576;47.792;9.628;2023-05-14T02:56:08;18.00;;;11.98;;
18887;SDS011;9576;47.792;9.628;2023-05-14T02:59:10;19.90;;;12.07;;
18887;SDS011;9576;47.792;9.628;2023-05-14T03:02:12;19.35;;;12.40;;
18887;SDS011;9576;47.792;9.628;2023-05-14T03:05:14;18.15;;;10.82;;
18887;SDS011;9576;47.792;9.628;2023-05-14T03:08:18;17.00;;;11.55;;
18887;SDS011;9576;47.792;9.628;2023-05-14T03:11:20;22.60;;;12.43;;
18887;SDS011;9576;47.792;9.628;2023-05-14T03:14:21;17.95;;;12.10;;
18887;SDS011;9576;47.792;9.628;2023-05-14T03:17:24;18.88;;;11.57;;
18887;SDS011;9576;47.792;9.628;2023-05-14T03:20:26;18.75;;;12.35;;
18887;SDS011;9576;47.792;9.628;2023-05-14T03:23:30;22.23;;;12.73;;
18887;SDS011;9576;47.792;9.628;2023-05-14T03:26:34;18.58;;;11.75;;
18887;SDS011;9576;47.792;9.628;2023-05-14T03:29:36;21.50;;;12.10;;
18887;SDS011;9576;47.792;9.628;2023-05-14T03:32:38;26.80;;;12.50;;
18887;SDS011;9576;47.792;9.628;2023-05-14T03:35:40;20.83;;;12.32;;
18887;SDS011;9576;47.792;9.628;2023-05-14T03:38:43;25.48;;;12.95;;
18887;SDS011;9576;47.792;9.628;2023-05-14T03:41:45;21.20;;;13.07;;
18887;SDS011;9576;47.792;9.628;2023-05-14T03:44:47;21.55;;;13.68;;
18887;SDS011;9576;47.792;9.628;2023-05-14T03:47:49;21.70;;;13.23;;
18887;SDS011;9576;47.792;9.628;2023-05-14T03:50:51;24.27;;;13.13;;
18887;SDS011;9576;47.792;9.628;2023-05-14T03:53:54;21.08;;;12.60;;
18887;SDS011;9576;47.792;9.628;2023-05-14T03:56:57;21.25;;;12.48;;
18887;SDS011;9576;47.792;9.628;2023-05-14T03:59:59;38.83;;;12.57;;
18887;SDS011;9576;47.792;9.628;2023-05-14T04:03:01;26.63;;;11.40;;
18887;SDS011;9576;47.792;9.628;2023-05-14T04:06:03;26.80;;;12.65;;
18887;SDS011;9576;47.792;9.628;2023-05-14T04:09:06;30.17;;;12.70;;
18887;SDS011;9576;47.792;9.628;2023-05-14T04:12:09;19.70;;;12.07;;
18887;SDS011;9576;47.792;9.628;2023-05-14T04:15:11;24.30;;;12.43;;
18887;SDS011;9576;47.792;9.628;2023-05-14T04:18:13;24.73;;;12.48;;
18887;SDS011;9576;47.792;9.628;2023-05-14T04:21:16;23.75;;;14.77;;
18887;SDS011;9576;47.792;9.628;2023-05-14T04:24:19;22.85;;;14.63;;
18887;SDS011;9576;47.792;9.628;2023-05-14T04:27:21;22.55;;;13.45;;
18887;SDS011;9576;47.792;9.628;2023-05-14T04:30:23;21.90;;;14.65;;
18887;SDS011;9576;47.792;9.628;2023-05-14T04:33:25;32.35;;;16.05;;
18887;SDS011;9576;47.792;9.628;2023-05-14T04:36:27;25.38;;;15.77;;
18887;SDS011;9576;47.792;9.628;2023-05-14T04:39:31;27.35;;;16.25;;
18887;SDS011;9576;47.792;9.628;2023-05-14T04:42:33;27.45;;;14.82;;
18887;SDS011;9576;47.792;9.628;2023-05-14T04:45:35;27.92;;;15.10;;
18887;SDS011;9576;47.792;9.628;2023-05-14T04:48:37;27.95;;;16.05;;
18887;SDS011;9576;47.792;9.628;2023-05-14T04:51:39;29.00;;;17.08;;
18887;SDS011;9576;47.792;9.628;2023-05-14T04:54:42;28.52;;;17.30;;
18887;SDS011;9576;47.792;9.628;2023-05-14T04:57:44;32.67;;;15.75;;
18887;SDS011;9576;47.792;9.628;2023-05-14T05:00:46;30.13;;;16.42;;
18887;SDS011;9576;47.792;9.628;2023-05-14T05:03:48;28.98;;;15.40;;
18887;SDS011;9576;47.792;9.628;2023-05-14T05:06:50;23.58;;;15.07;;
18887;SDS011;9576;47.792;9.628;2023-05-14T05:09:53;23.38;;;14.15;;
18887;SDS011;9576;47.792;9.628;2023-05-14T05:12:55;25.17;;;14.30;;
18887;SDS011;9576;47.792;9.628;2023-05-14T05:15:57;26.25;;;14.20;;
18887;SDS011;9576;47.792;9.628;2023-05-14T05:18:59;21.02;;;12.85;;
18887;SDS011;9576;47.792;9.628;2023-05-14T05:22:00;24.02;;;14.23;;
18887;SDS011;9576;47.792;9.628;2023-05-14T05:25:04;24.88;;;14.07;;
18887;SDS011;9576;47.792;9.628;2023-05-14T05:28:08;21.85;;;13.18;;
18887;SDS011;9576;47.792;9.628;2023-05-14T05:31:09;23.48;;;14.48;;
18887;SDS011;9576;47.792;9.628;2023-05-14T05:34:11;24.90;;;13.43;;
18887;SDS011;9576;47.792;9.628;2023-05-14T05:37:13;26.73;;;14.20;;
18887;SDS011;9576;47.792;9.628;2023-05-14T05:40:17;24.35;;;14.32;;
18887;SDS011;9576;47.792;9.628;2023-05-14T05:43:19;25.63;;;12.98;;
18887;SDS011;9576;47.792;9.628;2023-05-14T05:46:20;22.42;;;13.70;;
18887;SDS011;9576;47.792;9.628;2023-05-14T05:49:22;22.08;;;13.38;;
18887;SDS011;9576;47.792;9.628;2023-05-14T05:52:25;36.20;;;13.63;;
18887;SDS011;9576;47.792;9.628;2023-05-14T05:55:28;23.77;;;14.82;;
18887;SDS011;9576;47.792;9.628;2023-05-14T05:58:30;22.95;;;14.18;;
18887;SDS011;9576;47.792;9.628;2023-05-14T06:01:32;24.90;;;13.90;;
18887;SDS011;9576;47.792;9.628;2023-05-14T06:04:34;30.35;;;16.33;;
18887;SDS011;9576;47.792;9.628;2023-05-14T06:07:36;26.20;;;14.75;;
18887;SDS011;9576;47.792;9.628;2023-05-14T06:10:39;26.15;;;14.27;;
18887;SDS011;9576;47.792;9.628;2023-05-14T06:13:41;24.23;;;13.45;;
18887;SDS011;9576;47.792;9.628;2023-05-14T06:16:43;22.17;;;12.48;;
18887;SDS011;9576;47.792;9.628;2023-05-14T06:19:45;21.80;;;12.93;;
18887;SDS011;9576;47.792;9.628;2023-05-14T06:22:47;32.42;;;14.50;;
18887;SDS011;9576;47.792;9.628;2023-05-14T06:25:50;27.70;;;14.60;;
18887;SDS011;9576;47.792;9.628;2023-05-14T06:28:52;25.85;;;14.48;;
18887;SDS011;9576;47.792;9.628;2023-05-14T06:31:55;22.23;;;14.00;;
18887;SDS011;9576;47.792;9.628;2023-05-14T06:35:02;27.65;;;15.02;;
18887;SDS011;9576;47.792;9.628;2023-05-14T06:38:05;22.75;;;13.48;;
18887;SDS011;9576;47.792;9.628;2023-05-14T06:41:08;27.38;;;13.68;;
18887;SDS011;9576;47.792;9.628;2023-05-14T06:44:10;23.67;;;13.27;;
18887;SDS011;9576;47.792;9.628;2023-05-14T06:47:12;21.73;;;12.05;;
18887;SDS011;9576;47.792;9.628;2023-05-14T06:50:14;24.83;;;14.15;;
18887;SDS011;9576;47.792;9.628;2023-05-14T06:53:16;24.38;;;14.88;;
18887;SDS011;9576;47.792;9.628;2023-05-14T06:56:19;24.00;;;13.35;;
18887;SDS011;9576;47.792;9.628;2023-05-14T06:59:21;25.08;;;12.35;;
18887;SDS011;9576;47.792;9.628;2023-05-14T07:02:23;29.77;;;12.55;;
18887;SDS011;9576;47.792;9.628;2023-05-14T07:05:25;26.23;;;13.63;;
18887;SDS011;9576;47.792;9.628;2023-05-14T07:08:27;24.13;;;13.85;;
18887;SDS011;9576;47.792;9.628;2023-05-14T07:11:30;26.70;;;14.27;;
18887;SDS011;9576;47.792;9.628;2023-05-14T07:14:32;23.08;;;13.63;;
18887;SDS011;9576;47.792;9.628;2023-05-14T07:17:34;24.77;;;14.05;;
18887;SDS011;9576;47.792;9.628;2023-05-14T07:20:36;28.05;;;14.65;;
18887;SDS011;9576;47.792;9.628;2023-05-14T07:23:38;26.20;;;15.88;;
18887;SDS011;9576;47.792;9.628;2023-05-14T07:26:42;45.53;;;14.95;;
18887;SDS011;9576;47.792;9.628;2023-05-14T07:29:43;36.72;;;18.23;;
18887;SDS011;9576;47.792;9.628;2023-05-14T07:32:45;26.63;;;16.42;;
18887;SDS011;9576;47.792;9.628;2023-05-14T07:35:47;28.30;;;16.45;;
18887;SDS011;9576;47.792;9.628;2023-05-14T07:38:49;30.85;;;17.27;;
18887;SDS011;9576;47.792;9.628;2023-05-14T07:41:52;32.60;;;18.63;;
18887;SDS011;9576;47.792;9.628;2023-05-14T07:44:54;35.92;;;19.35;;
18887;SDS011;9576;47.792;9.628;2023-05-14T07:47:56;31.00;;;16.92;;
18887;SDS011;9576;47.792;9.628;2023-05-14T07:50:58;30.95;;;16.33;;
18887;SDS011;9576;47.792;9.628;2023-05-14T07:54:00;36.30;;;17.90;;
18887;SDS011;9576;47.792;9.628;2023-05-14T07:57:03;26.05;;;15.70;;
18887;SDS011;9576;47.792;9.628;2023-05-14T08:00:07;28.55;;;15.23;;
18887;SDS011;9576;47.792;9.628;2023-05-14T08:03:09;29.83;;;14.10;;
18887;SDS011;9576;47.792;9.628;2023-05-14T08:06:11;33.70;;;17.00;;
18887;SDS011;9576;47.792;9.628;2023-05-14T08:09:13;23.90;;;14.63;;
18887;SDS011;9576;47.792;9.628;2023-05-14T08:12:16;30.73;;;15.23;;
18887;SDS011;9576;47.792;9.628;2023-05-14T08:15:18;28.50;;;14.80;;
18887;SDS011;9576;47.792;9.628;2023-05-14T08:18:20;32.75;;;16.88;;
18887;SDS011;9576;47.792;9.628;2023-05-14T08:21:22;38.50;;;14.80;;
18887;SDS011;9576;47.792;9.628;2023-05-14T08:24:24;26.08;;;14.70;;
18887;SDS011;9576;47.792;9.628;2023-05-14T08:27:27;31.98;;;14.63;;
18887;SDS011;9576;47.792;9.628;2023-05-14T08:30:29;32.67;;;16.80;;
18887;SDS011;9576;47.792;9.628;2023-05-14T08:33:31;23.98;;;13.45;;
18887;SDS011;9576;47.792;9.628;2023-05-14T08:36:33;30.52;;;15.45;;
18887;SDS011;9576;47.792;9.628;2023-05-14T08:39:35;38.17;;;15.30;;
18887;SDS011;9576;47.792;9.628;2023-05-14T08:42:38;32.38;;;16.38;;
18887;SDS011;9576;47.792;9.628;2023-05-14T08:45:40;29.58;;;15.27;;
18887;SDS011;9576;47.792;9.628;2023-05-14T08:48:44;25.95;;;15.82;;
18887;SDS011;9576;47.792;9.628;2023-05-14T08:51:51;29.85;;;14.55;;
18887;SDS011;9576;47.792;9.628;2023-05-14T08:54:53;26.98;;;16.08;;
18887;SDS011;9576;47.792;9.628;2023-05-14T08:57:58;28.85;;;15.18;;
18887;SDS011;9576;47.792;9.628;2023-05-14T09:01:00;24.13;;;12.75;;
18887;SDS011;9576;47.792;9.628;2023-05-14T09:04:03;24.25;;;13.48;;
18887;SDS011;9576;47.792;9.628;2023-05-14T09:07:07;23.60;;;13.40;;
18887;SDS011;9576;47.792;9.628;2023-05-14T09:10:09;26.83;;;13.25;;
18887;SDS011;9576;47.792;9.628;2023-05-14T09:13:15;22.65;;;13.20;;
18887;SDS011;9576;47.792;9.628;2023-05-14T09:16:17;19.77;;;11.90;;
18887;SDS011;9576;47.792;9.628;2023-05-14T09:19:21;21.10;;;11.30;;
18887;SDS011;9576;47.792;9.628;2023-05-14T09:22:23;26.67;;;12.07;;
18887;SDS011;9576;47.792;9.628;2023-05-14T09:25:25;17.40;;;11.15;;
18887;SDS011;9576;47.792;9.628;2023-05-14T09:28:29;21.40;;;12.60;;
18887;SDS011;9576;47.792;9.628;2023-05-14T09:31:31;21.92;;;12.90;;
18887;SDS011;9576;47.792;9.628;2023-05-14T09:34:36;22.08;;;12.05;;
18887;SDS011;9576;47.792;9.628;2023-05-14T09:37:39;23.83;;;12.75;;
18887;SDS011;9576;47.792;9.628;2023-05-14T09:40:42;22.73;;;11.68;;
18887;SDS011;9576;47.792;9.628;2023-05-14T09:43:48;22.77;;;12.63;;
18887;SDS011;9576;47.792;9.628;2023-05-14T09:46:50;21.73;;;12.50;;
18887;SDS011;9576;47.792;9.628;2023-05-14T09:49:52;21.90;;;11.77;;
18887;SDS011;9576;47.792;9.628;2023-05-14T09:52:54;20.08;;;11.85;;
18887;SDS011;9576;47.792;9.628;2023-05-14T09:55:56;19.88;;;11.70;;
18887;SDS011;9576;47.792;9.628;2023-05-14T09:59:00;18.73;;;11.23;;
18887;SDS011;9576;47.792;9.628;2023-05-14T10:02:02;21.20;;;12.00;;
18887;SDS011;9576;47.792;9.628;2023-05-14T10:05:10;19.65;;;10.57;;
18887;SDS011;9576;47.792;9.628;2023-05-14T10:08:17;18.92;;;11.25;;
18887;SDS011;9576;47.792;9.628;2023-05-14T10:11:23;24.42;;;11.90;;
18887;SDS011;9576;47.792;9.628;2023-05-14T10:14:31;22.80;;;11.07;;
18887;SDS011;9576;47.792;9.628;2023-05-14T10:17:36;24.08;;;12.95;;
18887;SDS011;9576;47.792;9.628;2023-05-14T10:20:45;20.90;;;11.35;;
18887;SDS011;9576;47.792;9.628;2023-05-14T10:23:53;23.98;;;13.55;;
18887;SDS011;9576;47.792;9.628;2023-05-14T10:26:55;19.35;;;10.65;;
18887;SDS011;9576;47.792;9.628;2023-05-14T10:29:59;18.25;;;10.18;;
18887;SDS011;9576;47.792;9.628;2023-05-14T10:33:07;19.70;;;12.00;;
18887;SDS011;9576;47.792;9.628;2023-05-14T10:36:10;17.67;;;10.93;;
18887;SDS011;9576;47.792;9.628;2023-05-14T10:39:11;30.88;;;11.68;;
18887;SDS011;9576;47.792;9.628;2023-05-14T10:42:15;18.38;;;10.88;;
18887;SDS011;9576;47.792;9.628;2023-05-14T10:45:19;23.15;;;11.68;;
18887;SDS011;9576;47.792;9.628;2023-05-14T10:48:24;16.35;;;9.40;;
18887;SDS011;9576;47.792;9.628;2023-05-14T10:51:27;19.77;;;11.45;;
18887;SDS011;9576;47.792;9.628;2023-05-14T10:54:28;16.30;;;9.25;;
18887;SDS011;9576;47.792;9.628;2023-05-14T10:57:30;15.02;;;9.45;;
18887;SDS011;9576;47.792;9.628;2023-05-14T11:00:34;17.20;;;9.93;;
18887;SDS011;9576;47.792;9.628;2023-05-14T11:03:39;16.48;;;9.23;;
18887;SDS011;9576;47.792;9.628;2023-05-14T11:06:42;12.05;;;8.63;;
18887;SDS011;9576;47.792;9.628;2023-05-14T11:09:45;18.02;;;9.68;;
18887;SDS011;9576;47.792;9.628;2023-05-14T11:12:48;17.95;;;9.88;;
18887;SDS011;9576;47.792;9.628;2023-05-14T11:15:52;20.70;;;10.65;;
18887;SDS011;9576;47.792;9.628;2023-05-14T11:18:59;22.17;;;11.80;;
18887;SDS011;9576;47.792;9.628;2023-05-14T11:22:02;25.15;;;9.25;;
18887;SDS011;9576;47.792;9.628;2023-05-14T11:25:04;17.40;;;10.00;;
18887;SDS011;9576;47.792;9.628;2023-05-14T11:28:07;12.80;;;8.75;;
18887;SDS011;9576;47.792;9.628;2023-05-14T11:31:11;17.48;;;9.57;;
18887;SDS011;9576;47.792;9.628;2023-05-14T11:34:13;13.40;;;8.23;;
18887;SDS011;9576;47.792;9.628;2023-05-14T11:37:15;16.23;;;9.10;;
18887;SDS011;9576;47.792;9.628;2023-05-14T11:40:18;22.27;;;11.27;;
18887;SDS011;9576;47.792;9.628;2023-05-14T11:43:20;25.52;;;12.20;;
18887;SDS011;9576;47.792;9.628;2023-05-14T11:46:24;18.83;;;10.30;;
18887;SDS011;9576;47.792;9.628;2023-05-14T11:52:29;30.55;;;10.65;;
18887;SDS011;9576;47.792;9.628;2023-05-14T11:55:32;21.35;;;8.10;;
18887;SDS011;9576;47.792;9.628;2023-05-14T11:58:35;15.90;;;9.00;;
18887;SDS011;9576;47.792;9.628;2023-05-14T12:01:38;19.33;;;9.65;;
18887;SDS011;9576;47.792;9.628;2023-05-14T12:04:40;13.32;;;7.90;;
18887;SDS011;9576;47.792;9.628;2023-05-14T12:07:43;15.98;;;9.10;;
18887;SDS011;9576;47.792;9.628;2023-05-14T12:10:45;13.80;;;8.75;;
18887;SDS011;9576;47.792;9.628;2023-05-14T12:13:47;16.95;;;8.43;;
18887;SDS011;9576;47.792;9.628;2023-05-14T12:16:51;17.00;;;8.95;;
18887;SDS011;9576;47.792;9.628;2023-05-14T12:19:53;22.45;;;10.65;;
18887;SDS011;9576;47.792;9.628;2023-05-14T12:22:57;23.65;;;8.85;;
18887;SDS011;9576;47.792;9.628;2023-05-14T12:26:02;18.90;;;9.75;;
18887;SDS011;9576;47.792;9.628;2023-05-14T12:29:06;20.15;;;9.73;;
18887;SDS011;9576;47.792;9.628;2023-05-14T12:32:09;18.27;;;8.98;;
18887;SDS011;9576;47.792;9.628;2023-05-14T12:35:11;14.68;;;8.93;;
18887;SDS011;9576;47.792;9.628;2023-05-14T12:38:13;19.38;;;10.00;;
18887;SDS011;9576;47.792;9.628;2023-05-14T12:41:15;16.80;;;9.35;;
18887;SDS011;9576;47.792;9.628;2023-05-14T12:44:17;18.98;;;8.68;;
18887;SDS011;9576;47.792;9.628;2023-05-14T12:47:22;15.98;;;8.85;;
18887;SDS011;9576;47.792;9.628;2023-05-14T12:50:24;12.32;;;7.53;;
18887;SDS011;9576;47.792;9.628;2023-05-14T12:53:26;13.55;;;7.10;;
18887;SDS011;9576;47.792;9.628;2023-05-14T12:56:28;12.95;;;7.32;;
18887;SDS011;9576;47.792;9.628;2023-05-14T12:59:31;19.35;;;7.53;;
18887;SDS011;9576;47.792;9.628;2023-05-14T13:02:34;11.95;;;7.60;;
18887;SDS011;9576;47.792;9.628;2023-05-14T13:05:36;11.80;;;7.40;;
18887;SDS011;9576;47.792;9.628;2023-05-14T13:08:38;11.88;;;7.00;;
18887;SDS011;9576;47.792;9.628;2023-05-14T13:11:40;12.75;;;7.00;;
18887;SDS011;9576;47.792;9.628;2023-05-14T13:14:42;13.55;;;7.15;;
18887;SDS011;9576;47.792;9.628;2023-05-14T13:17:45;10.32;;;6.97;;
18887;SDS011;9576;47.792;9.628;2023-05-14T13:20:47;10.27;;;6.97;;
18887;SDS011;9576;47.792;9.628;2023-05-14T13:23:49;12.05;;;6.30;;
18887;SDS011;9576;47.792;9.628;2023-05-14T13:26:51;10.95;;;6.75;;
18887;SDS011;9576;47.792;9.628;2023-05-14T13:29:53;11.07;;;7.00;;
18887;SDS011;9576;47.792;9.628;2023-05-14T13:32:56;10.00;;;6.68;;
18887;SDS011;9576;47.792;9.628;2023-05-14T13:35:58;10.30;;;6.30;;
18887;SDS011;9576;47.792;9.628;2023-05-14T13:39:00;11.43;;;6.82;;
18887;SDS011;9576;47.792;9.628;2023-05-14T13:42:02;13.70;;;6.50;;
18887;SDS011;9576;47.792;9.628;2023-05-14T13:45:05;13.23;;;6.32;;
18887;SDS011;9576;47.792;9.628;2023-05-14T13:48:09;14.40;;;6.35;;
18887;SDS011;9576;47.792;9.628;2023-05-14T13:51:11;10.23;;;5.85;;
18887;SDS011;9576;47.792;9.628;2023-05-14T13:54:13;8.65;;;6.10;;
18887;SDS011;9576;47.792;9.628;2023-05-14T13:57:15;8.13;;;5.15;;
18887;SDS011;9576;47.792;9.628;2023-05-14T14:00:17;7.50;;;5.10;;
18887;SDS011;9576;47.792;9.628;2023-05-14T14:03:20;8.85;;;5.55;;
18887;SDS011;9576;47.792;9.628;2023-05-14T14:06:24;9.02;;;5.25;;
18887;SDS011;9576;47.792;9.628;2023-05-14T14:09:26;7.10;;;4.72;;
18887;SDS011;9576;47.792;9.628;2023-05-14T14:12:28;14.18;;;4.45;;
18887;SDS011;9576;47.792;9.628;2023-05-14T14:15:30;10.15;;;4.10;;
18887;SDS011;9576;47.792;9.628;2023-05-14T14:18:33;10.43;;;4.32;;
18887;SDS011;9576;47.792;9.628;2023-05-14T14:21:35;9.10;;;4.13;;
18887;SDS011;9576;47.792;9.628;2023-05-14T14:24:38;7.05;;;4.32;;
18887;SDS011;9576;47.792;9.628;2023-05-14T14:27:40;4.90;;;3.78;;
18887;SDS011;9576;47.792;9.628;2023-05-14T14:30:42;5.03;;;3.28;;
18887;SDS011;9576;47.792;9.628;2023-05-14T14:33:45;4.60;;;3.13;;
18887;SDS011;9576;47.792;9.628;2023-05-14T14:36:47;5.22;;;2.92;;
18887;SDS011;9576;47.792;9.628;2023-05-14T14:39:49;4.97;;;2.72;;
18887;SDS011;9576;47.792;9.628;2023-05-14T14:42:51;3.53;;;2.47;;
18887;SDS011;9576;47.792;9.628;2023-05-14T14:45:53;2.75;;;2.05;;
18887;SDS011;9576;47.792;9.628;2023-05-14T14:48:57;3.10;;;2.45;;
18887;SDS011;9576;47.792;9.628;2023-05-14T14:51:58;4.28;;;2.58;;
18887;SDS011;9576;47.792;9.628;2023-05-14T14:55:00;2.35;;;1.85;;
18887;SDS011;9576;47.792;9.628;2023-05-14T14:58:02;2.88;;;2.25;;
18887;SDS011;9576;47.792;9.628;2023-05-14T15:01:04;4.32;;;2.55;;
18887;SDS011;9576;47.792;9.628;2023-05-14T15:04:08;5.43;;;2.67;;
18887;SDS011;9576;47.792;9.628;2023-05-14T15:07:09;3.67;;;2.67;;
18887;SDS011;9576;47.792;9.628;2023-05-14T15:10:11;3.35;;;2.50;;
18887;SDS011;9576;47.792;9.628;2023-05-14T15:13:14;2.97;;;2.05;;
18887;SDS011;9576;47.792;9.628;2023-05-14T15:16:16;3.70;;;2.60;;
18887;SDS011;9576;47.792;9.628;2023-05-14T15:19:19;4.07;;;2.67;;
18887;SDS011;9576;47.792;9.628;2023-05-14T15:22:21;3.63;;;2.63;;
18887;SDS011;9576;47.792;9.628;2023-05-14T15:25:23;2.72;;;2.20;;
18887;SDS011;9576;47.792;9.628;2023-05-14T15:28:26;4.82;;;2.60;;
18887;SDS011;9576;47.792;9.628;2023-05-14T15:31:28;6.70;;;2.60;;
18887;SDS011;9576;47.792;9.628;2023-05-14T15:34:31;6.60;;;2.95;;
18887;SDS011;9576;47.792;9.628;2023-05-14T15:37:34;5.30;;;2.88;;
18887;SDS011;9576;47.792;9.628;2023-05-14T15:40:37;4.43;;;3.05;;
18887;SDS011;9576;47.792;9.628;2023-05-14T15:43:40;7.45;;;2.95;;
18887;SDS011;9576;47.792;9.628;2023-05-14T15:46:42;5.03;;;2.35;;
18887;SDS011;9576;47.792;9.628;2023-05-14T15:49:45;3.88;;;2.40;;
18887;SDS011;9576;47.792;9.628;2023-05-14T15:52:47;3.50;;;2.17;;
18887;SDS011;9576;47.792;9.628;2023-05-14T15:55:49;9.95;;;2.60;;
18887;SDS011;9576;47.792;9.628;2023-05-14T15:58:51;5.47;;;2.50;;
18887;SDS011;9576;47.792;9.628;2023-05-14T16:01:53;5.03;;;2.53;;
18887;SDS011;9576;47.792;9.628;2023-05-14T16:04:57;2.88;;;2.42;;
18887;SDS011;9576;47.792;9.628;2023-05-14T16:07:59;4.68;;;3.00;;
18887;SDS011;9576;47.792;9.628;2023-05-14T16:11:00;3.17;;;2.22;;
18887;SDS011;9576;47.792;9.628;2023-05-14T16:14:02;2.45;;;2.22;;
18887;SDS011;9576;47.792;9.628;2023-05-14T16:17:04;8.63;;;2.47;;
18887;SDS011;9576;47.792;9.628;2023-05-14T16:20:08;5.28;;;2.20;;
18887;SDS011;9576;47.792;9.628;2023-05-14T16:23:11;2.15;;;1.63;;
18887;SDS011;9576;47.792;9.628;2023-05-14T16:26:13;2.08;;;1.45;;
18887;SDS011;9576;47.792;9.628;2023-05-14T16:29:15;5.50;;;1.90;;
18887;SDS011;9576;47.792;9.628;2023-05-14T16:32:17;4.70;;;2.45;;
18887;SDS011;9576;47.792;9.628;2023-05-14T16:35:20;4.20;;;2.05;;
18887;SDS011;9576;47.792;9.628;2023-05-14T16:38:22;4.28;;;2.60;;
18887;SDS011;9576;47.792;9.628;2023-05-14T16:41:24;3.13;;;1.48;;
18887;SDS011;9576;47.792;9.628;2023-05-14T16:44:27;10.13;;;2.85;;
18887;SDS011;9576;47.792;9.628;2023-05-14T16:47:29;6.05;;;2.42;;
18887;SDS011;9576;47.792;9.628;2023-05-14T16:50:32;2.00;;;1.80;;
18887;SDS011;9576;47.792;9.628;2023-05-14T16:53:34;3.45;;;2.05;;
18887;SDS011;9576;47.792;9.628;2023-05-14T16:56:36;3.47;;;2.08;;
18887;SDS011;9576;47.792;9.628;2023-05-14T16:59:38;4.53;;;3.25;;
18887;SDS011;9576;47.792;9.628;2023-05-14T17:02:40;5.75;;;2.50;;
18887;SDS011;9576;47.792;9.628;2023-05-14T17:05:43;6.63;;;3.53;;
18887;SDS011;9576;47.792;9.628;2023-05-14T17:08:45;4.47;;;2.30;;
18887;SDS011;9576;47.792;9.628;2023-05-14T17:11:47;2.72;;;2.00;;
18887;SDS011;9576;47.792;9.628;2023-05-14T17:14:49;3.75;;;2.45;;
18887;SDS011;9576;47.792;9.628;2023-05-14T17:17:51;6.88;;;3.88;;
18887;SDS011;9576;47.792;9.628;2023-05-14T17:20:55;6.32;;;3.90;;
18887;SDS011;9576;47.792;9.628;2023-05-14T17:23:57;8.35;;;4.10;;
18887;SDS011;9576;47.792;9.628;2023-05-14T17:26:59;5.75;;;3.65;;
18887;SDS011;9576;47.792;9.628;2023-05-14T17:30:01;6.97;;;4.05;;
18887;SDS011;9576;47.792;9.628;2023-05-14T17:33:04;10.10;;;3.72;;
18887;SDS011;9576;47.792;9.628;2023-05-14T17:36:07;5.20;;;3.13;;
18887;SDS011;9576;47.792;9.628;2023-05-14T17:39:09;11.02;;;5.95;;
18887;SDS011;9576;47.792;9.628;2023-05-14T17:42:11;4.60;;;2.90;;
18887;SDS011;9576;47.792;9.628;2023-05-14T17:45:13;4.70;;;2.88;;
18887;SDS011;9576;47.792;9.628;2023-05-14T17:48:20;7.03;;;3.45;;
18887;SDS011;9576;47.792;9.628;2023-05-14T17:51:24;7.55;;;3.13;;
18887;SDS011;9576;47.792;9.628;2023-05-14T17:54:26;4.68;;;3.22;;
18887;SDS011;9576;47.792;9.628;2023-05-14T17:57:28;2.92;;;2.42;;
18887;SDS011;9576;47.792;9.628;2023-05-14T18:00:30;12.23;;;2.40;;
18887;SDS011;9576;47.792;9.628;2023-05-14T18:03:32;4.95;;;2.67;;
18887;SDS011;9576;47.792;9.628;2023-05-14T18:06:35;4.00;;;2.40;;
18887;SDS011;9576;47.792;9.628;2023-05-14T18:09:37;4.32;;;2.40;;
18887;SDS011;9576;47.792;9.628;2023-05-14T18:12:39;6.07;;;3.05;;
18887;SDS011;9576;47.792;9.628;2023-05-14T18:15:41;9.35;;;3.83;;
18887;SDS011;9576;47.792;9.628;2023-05-14T18:18:43;8.10;;;4.15;;
18887;SDS011;9576;47.792;9.628;2023-05-14T18:21:46;4.72;;;3.10;;